sensor_id;sensor_type;location;lat;lon;timestamp;pressure;altitude;pressure_sealevel;temperature;humidity
76590;BME280;65471;55.908;37.880;2023-04-15T00:01:35;101008.03;;;0.80;36.13
76590;BME280;65471;55.908;37.880;2023-04-15T00:04:02;101007.31;;;0.78;35.59
76590;BME280;65471;55.908;37.880;2023-04-15T00:06:30;101012.63;;;0.78;35.81
76590;BME280;65471;55.908;37.880;2023-04-15T00:08:57;101012.75;;;0.76;35.79
76590;BME280;65471;55.908;37.880;2023-04-15T00:11:24;101021.03;;;0.73;36.01
76590;BME280;65471;55.908;37.880;2023-04-15T00:13:51;101022.97;;;0.71;36.37
76590;BME280;65471;55.908;37.880;2023-04-15T00:16:18;101034.63;;;0.70;36.78
76590;BME280;65471;55.908;37.880;2023-04-15T00:18:45;101034.75;;;0.68;36.50
76590;BME280;65471;55.908;37.880;2023-04-15T00:21:12;101034.88;;;0.67;36.33
76590;BME280;65471;55.908;37.880;2023-04-15T00:23:39;101038.66;;;0.64;36.29
76590;BME280;65471;55.908;37.880;2023-04-15T00:26:06;101036.25;;;0.61;36.45
76590;BME280;65471;55.908;37.880;2023-04-15T00:28:33;101036.38;;;0.60;36.42
76590;BME280;65471;55.908;37.880;2023-04-15T00:30:59;101040.19;;;0.57;36.04
76590;BME280;65471;55.908;37.880;2023-04-15T00:33:27;101041.97;;;0.57;36.46
76590;BME280;65471;55.908;37.880;2023-04-15T00:35:53;101034.13;;;0.55;36.62
76590;BME280;65471;55.908;37.880;2023-04-15T00:38:20;101041.56;;;0.51;36.76
76590;BME280;65471;55.908;37.880;2023-04-15T00:40:49;101051.63;;;0.48;36.39
76590;BME280;65471;55.908;37.880;2023-04-15T00:43:15;101052.44;;;0.48;36.92
76590;BME280;65471;55.908;37.880;2023-04-15T00:45:43;101048.13;;;0.47;36.86
76590;BME280;65471;55.908;37.880;2023-04-15T00:48:10;101054.56;;;0.45;36.92
76590;BME280;65471;55.908;37.880;2023-04-15T00:50:37;101059.16;;;0.43;36.92
76590;BME280;65471;55.908;37.880;2023-04-15T00:53:04;101057.63;;;0.40;36.89
76590;BME280;65471;55.908;37.880;2023-04-15T00:55:31;101062.34;;;0.37;37.00
76590;BME280;65471;55.908;37.880;2023-04-15T00:57:58;101073.00;;;0.37;37.15
76590;BME280;65471;55.908;37.880;2023-04-15T01:00:24;101072.44;;;0.33;36.78
76590;BME280;65471;55.908;37.880;2023-04-15T01:02:52;101070.88;;;0.30;36.79
76590;BME280;65471;55.908;37.880;2023-04-15T01:05:19;101068.34;;;0.29;37.57
76590;BME280;65471;55.908;37.880;2023-04-15T01:07:47;101078.13;;;0.28;36.94
76590;BME280;65471;55.908;37.880;2023-04-15T01:10:14;101084.31;;;0.29;36.96
76590;BME280;65471;55.908;37.880;2023-04-15T01:12:41;101079.97;;;0.28;36.91
76590;BME280;65471;55.908;37.880;2023-04-15T01:15:09;101084.59;;;0.26;37.32
76590;BME280;65471;55.908;37.880;2023-04-15T01:17:38;101070.97;;;0.19;37.74
76590;BME280;65471;55.908;37.880;2023-04-15T01:20:05;101093.94;;;0.20;37.38
76590;BME280;65471;55.908;37.880;2023-04-15T01:22:35;101088.03;;;0.16;37.73
76590;BME280;65471;55.908;37.880;2023-04-15T01:25:10;101091.78;;;0.14;37.60
76590;BME280;65471;55.908;37.880;2023-04-15T01:27:38;101087.47;;;0.13;37.83
76590;BME280;65471;55.908;37.880;2023-04-15T01:30:07;101097.22;;;0.12;38.02
76590;BME280;65471;55.908;37.880;2023-04-15T01:32:34;101097.22;;;0.12;37.88
76590;BME280;65471;55.908;37.880;2023-04-15T01:35:20;101104.38;;;0.12;37.68
76590;BME280;65471;55.908;37.880;2023-04-15T01:37:47;101099.47;;;0.07;37.75
76590;BME280;65471;55.908;37.880;2023-04-15T01:40:14;101110.09;;;0.07;37.80
76590;BME280;65471;55.908;37.880;2023-04-15T01:42:41;101110.94;;;0.08;38.29
76590;BME280;65471;55.908;37.880;2023-04-15T01:45:08;101112.84;;;0.06;37.84
76590;BME280;65471;55.908;37.880;2023-04-15T01:47:35;101113.13;;;0.03;38.11
76590;BME280;65471;55.908;37.880;2023-04-15T01:50:02;101112.28;;;0.02;38.19
76590;BME280;65471;55.908;37.880;2023-04-15T01:52:28;101114.13;;;0.02;37.89
76590;BME280;65471;55.908;37.880;2023-04-15T01:54:56;101113.13;;;0.03;38.15
76590;BME280;65471;55.908;37.880;2023-04-15T01:57:22;101116.03;;;-0.01;37.90
76590;BME280;65471;55.908;37.880;2023-04-15T01:59:49;101122.31;;;-0.02;37.93
76590;BME280;65471;55.908;37.880;2023-04-15T02:02:16;101122.59;;;-0.05;37.69
76590;BME280;65471;55.908;37.880;2023-04-15T02:04:43;101121.75;;;-0.05;37.89
76590;BME280;65471;55.908;37.880;2023-04-15T02:07:10;101128.91;;;-0.06;38.14
76590;BME280;65471;55.908;37.880;2023-04-15T02:09:37;101136.00;;;-0.06;38.09
76590;BME280;65471;55.908;37.880;2023-04-15T02:12:04;101133.50;;;-0.08;38.34
76590;BME280;65471;55.908;37.880;2023-04-15T02:14:31;101139.91;;;-0.10;38.50
76590;BME280;65471;55.908;37.880;2023-04-15T02:16:58;101137.38;;;-0.12;38.88
76590;BME280;65471;55.908;37.880;2023-04-15T02:19:35;101138.34;;;-0.13;38.70
76590;BME280;65471;55.908;37.880;2023-04-15T02:22:02;101144.66;;;-0.14;38.45
76590;BME280;65471;55.908;37.880;2023-04-15T02:24:29;101140.56;;;-0.18;38.25
76590;BME280;65471;55.908;37.880;2023-04-15T02:26:56;101137.91;;;-0.18;38.27
76590;BME280;65471;55.908;37.880;2023-04-15T02:29:23;101135.94;;;-0.16;38.76
76590;BME280;65471;55.908;37.880;2023-04-15T02:31:50;101143.09;;;-0.16;39.01
76590;BME280;65471;55.908;37.880;2023-04-15T02:34:17;101147.56;;;-0.17;38.97
76590;BME280;65471;55.908;37.880;2023-04-15T02:36:44;101150.31;;;-0.19;38.60
76590;BME280;65471;55.908;37.880;2023-04-15T02:39:12;101162.78;;;-0.19;38.36
76590;BME280;65471;55.908;37.880;2023-04-15T02:41:42;101156.50;;;-0.18;38.75
76590;BME280;65471;55.908;37.880;2023-04-15T02:44:09;101170.75;;;-0.19;38.41
76590;BME280;65471;55.908;37.880;2023-04-15T02:46:38;101174.38;;;-0.20;38.77
76590;BME280;65471;55.908;37.880;2023-04-15T02:49:06;101170.88;;;-0.21;38.69
76590;BME280;65471;55.908;37.880;2023-04-15T02:51:34;101169.91;;;-0.20;39.12
76590;BME280;65471;55.908;37.880;2023-04-15T02:54:01;101169.06;;;-0.20;38.72
76590;BME280;65471;55.908;37.880;2023-04-15T02:56:27;101186.00;;;-0.21;38.58
76590;BME280;65471;55.908;37.880;2023-04-15T02:58:55;101183.22;;;-0.20;38.50
76590;BME280;65471;55.908;37.880;2023-04-15T03:01:22;101187.78;;;-0.22;38.58
76590;BME280;65471;55.908;37.880;2023-04-15T03:03:49;101191.31;;;-0.21;38.48
76590;BME280;65471;55.908;37.880;2023-04-15T03:06:16;101198.06;;;-0.17;38.49
76590;BME280;65471;55.908;37.880;2023-04-15T03:08:43;101189.22;;;-0.18;38.28
76590;BME280;65471;55.908;37.880;2023-04-15T03:11:10;101199.72;;;-0.16;38.53
76590;BME280;65471;55.908;37.880;2023-04-15T03:13:38;101199.72;;;-0.16;38.75
76590;BME280;65471;55.908;37.880;2023-04-15T03:16:07;101205.06;;;-0.16;38.99
76590;BME280;65471;55.908;37.880;2023-04-15T03:18:34;101212.78;;;-0.13;39.02
76590;BME280;65471;55.908;37.880;2023-04-15T03:21:01;101209.16;;;-0.12;38.95
76590;BME280;65471;55.908;37.880;2023-04-15T03:23:30;101220.25;;;-0.07;38.96
76590;BME280;65471;55.908;37.880;2023-04-15T03:25:56;101207.94;;;-0.08;38.92
76590;BME280;65471;55.908;37.880;2023-04-15T03:28:24;101217.34;;;-0.04;38.99
76590;BME280;65471;55.908;37.880;2023-04-15T03:30:50;101213.72;;;-0.03;38.94
76590;BME280;65471;55.908;37.880;2023-04-15T03:33:17;101216.38;;;-0.03;38.92
76590;BME280;65471;55.908;37.880;2023-04-15T03:35:44;101215.28;;;0.00;38.84
76590;BME280;65471;55.908;37.880;2023-04-15T03:38:30;101224.53;;;0.06;39.26
76590;BME280;65471;55.908;37.880;2023-04-15T03:40:57;101226.25;;;0.07;38.74
76590;BME280;65471;55.908;37.880;2023-04-15T03:43:23;101228.78;;;0.08;38.55
76590;BME280;65471;55.908;37.880;2023-04-15T03:45:50;101223.44;;;0.08;38.14
76590;BME280;65471;55.908;37.880;2023-04-15T03:48:17;101232.16;;;0.10;38.51
76590;BME280;65471;55.908;37.880;2023-04-15T03:50:44;101230.94;;;0.14;38.39
76590;BME280;65471;55.908;37.880;2023-04-15T03:53:11;101231.66;;;0.16;38.56
76590;BME280;65471;55.908;37.880;2023-04-15T03:55:38;101233.34;;;0.17;38.50
76590;BME280;65471;55.908;37.880;2023-04-15T03:58:05;101230.41;;;0.21;38.98
76590;BME280;65471;55.908;37.880;2023-04-15T04:00:32;101231.97;;;0.23;38.79
76590;BME280;65471;55.908;37.880;2023-04-15T04:02:58;101233.56;;;0.26;38.48
76590;BME280;65471;55.908;37.880;2023-04-15T04:05:26;101244.91;;;0.28;38.44
76590;BME280;65471;55.908;37.880;2023-04-15T04:07:52;101249.13;;;0.30;38.30
76590;BME280;65471;55.908;37.880;2023-04-15T04:10:19;101239.91;;;0.34;38.37
76590;BME280;65471;55.908;37.880;2023-04-15T04:12:46;101247.75;;;0.36;38.40
76590;BME280;65471;55.908;37.880;2023-04-15T04:15:13;101252.13;;;0.37;38.63
76590;BME280;65471;55.908;37.880;2023-04-15T04:17:39;101248.34;;;0.40;38.36
76590;BME280;65471;55.908;37.880;2023-04-15T04:20:07;101248.19;;;0.41;37.69
76590;BME280;65471;55.908;37.880;2023-04-15T04:22:40;101253.72;;;0.49;38.04
76590;BME280;65471;55.908;37.880;2023-04-15T04:25:07;101259.66;;;0.53;37.70
76590;BME280;65471;55.908;37.880;2023-04-15T04:27:35;101256.47;;;0.59;38.15
76590;BME280;65471;55.908;37.880;2023-04-15T04:30:03;101259.81;;;0.61;38.22
76590;BME280;65471;55.908;37.880;2023-04-15T04:32:30;101263.09;;;0.65;37.90
76590;BME280;65471;55.908;37.880;2023-04-15T04:34:57;101252.75;;;0.72;37.54
76590;BME280;65471;55.908;37.880;2023-04-15T04:37:23;101261.91;;;0.79;37.68
76590;BME280;65471;55.908;37.880;2023-04-15T04:39:51;101267.69;;;0.84;37.94
76590;BME280;65471;55.908;37.880;2023-04-15T04:42:17;101259.69;;;0.84;37.63
76590;BME280;65471;55.908;37.880;2023-04-15T04:44:44;101261.72;;;0.92;37.35
76590;BME280;65471;55.908;37.880;2023-04-15T04:47:11;101263.28;;;0.94;37.44
76590;BME280;65471;55.908;37.880;2023-04-15T04:49:38;101268.06;;;1.00;37.71
76590;BME280;65471;55.908;37.880;2023-04-15T04:52:05;101262.47;;;1.03;37.26
76590;BME280;65471;55.908;37.880;2023-04-15T04:54:32;101259.25;;;1.10;36.94
76590;BME280;65471;55.908;37.880;2023-04-15T04:56:59;101255.50;;;1.12;36.72
76590;BME280;65471;55.908;37.880;2023-04-15T04:59:26;101261.00;;;1.20;36.99
76590;BME280;65471;55.908;37.880;2023-04-15T05:01:53;101265.91;;;1.25;36.63
76590;BME280;65471;55.908;37.880;2023-04-15T05:04:20;101267.94;;;1.33;36.68
76590;BME280;65471;55.908;37.880;2023-04-15T05:06:47;101265.69;;;1.38;36.77
76590;BME280;65471;55.908;37.880;2023-04-15T05:09:13;101260.66;;;1.45;36.09
76590;BME280;65471;55.908;37.880;2023-04-15T05:11:40;101269.81;;;1.52;36.01
76590;BME280;65471;55.908;37.880;2023-04-15T05:14:07;101264.78;;;1.59;35.95
76590;BME280;65471;55.908;37.880;2023-04-15T05:16:34;101260.88;;;1.63;34.75
76590;BME280;65471;55.908;37.880;2023-04-15T05:19:01;101265.78;;;1.67;34.75
76590;BME280;65471;55.908;37.880;2023-04-15T05:21:28;101266.09;;;1.74;35.24
76590;BME280;65471;55.908;37.880;2023-04-15T05:23:55;101265.53;;;1.80;35.30
76590;BME280;65471;55.908;37.880;2023-04-15T05:26:21;101267.63;;;1.86;35.15
76590;BME280;65471;55.908;37.880;2023-04-15T05:28:49;101270.31;;;1.96;35.44
76590;BME280;65471;55.908;37.880;2023-04-15T05:31:16;101273.00;;;1.96;35.00
76590;BME280;65471;55.908;37.880;2023-04-15T05:33:43;101264.03;;;1.97;34.78
76590;BME280;65471;55.908;37.880;2023-04-15T05:36:10;101272.84;;;1.98;34.20
76590;BME280;65471;55.908;37.880;2023-04-15T05:38:37;101276.66;;;2.05;34.26
76590;BME280;65471;55.908;37.880;2023-04-15T05:41:04;101279.91;;;2.09;34.64
76590;BME280;65471;55.908;37.880;2023-04-15T05:43:31;101281.31;;;2.13;34.06
76590;BME280;65471;55.908;37.880;2023-04-15T05:45:58;101281.03;;;2.16;34.06
76590;BME280;65471;55.908;37.880;2023-04-15T05:48:24;101289.31;;;2.22;34.02
76590;BME280;65471;55.908;37.880;2023-04-15T05:50:51;101280.03;;;2.27;33.98
76590;BME280;65471;55.908;37.880;2023-04-15T05:53:19;101287.22;;;2.36;34.42
76590;BME280;65471;55.908;37.880;2023-04-15T05:55:46;101290.03;;;2.44;34.46
76590;BME280;65471;55.908;37.880;2023-04-15T05:58:13;101287.63;;;2.51;34.18
76590;BME280;65471;55.908;37.880;2023-04-15T06:00:40;101291.44;;;2.58;34.05
76590;BME280;65471;55.908;37.880;2023-04-15T06:03:06;101294.22;;;2.66;34.70
76590;BME280;65471;55.908;37.880;2023-04-15T06:05:33;101284.50;;;2.75;34.44
76590;BME280;65471;55.908;37.880;2023-04-15T06:08:00;101294.19;;;2.86;33.83
76590;BME280;65471;55.908;37.880;2023-04-15T06:10:27;101296.28;;;2.92;33.58
76590;BME280;65471;55.908;37.880;2023-04-15T06:12:54;101301.34;;;2.95;33.34
76590;BME280;65471;55.908;37.880;2023-04-15T06:15:21;101292.75;;;3.01;33.35
76590;BME280;65471;55.908;37.880;2023-04-15T06:17:48;101301.03;;;3.08;32.93
76590;BME280;65471;55.908;37.880;2023-04-15T06:20:15;101290.75;;;3.03;33.05
76590;BME280;65471;55.908;37.880;2023-04-15T06:22:42;101299.94;;;3.01;32.79
76590;BME280;65471;55.908;37.880;2023-04-15T06:25:09;101301.16;;;3.06;32.80
76590;BME280;65471;55.908;37.880;2023-04-15T06:27:36;101298.63;;;3.15;32.76
76590;BME280;65471;55.908;37.880;2023-04-15T06:30:03;101294.66;;;3.19;32.69
76590;BME280;65471;55.908;37.880;2023-04-15T06:32:31;101299.03;;;3.20;32.52
76590;BME280;65471;55.908;37.880;2023-04-15T06:34:58;101305.06;;;3.22;33.05
76590;BME280;65471;55.908;37.880;2023-04-15T06:37:24;101295.47;;;3.29;32.72
76590;BME280;65471;55.908;37.880;2023-04-15T06:39:51;101304.88;;;3.33;32.55
76590;BME280;65471;55.908;37.880;2023-04-15T06:42:18;101305.28;;;3.38;32.43
76590;BME280;65471;55.908;37.880;2023-04-15T06:44:45;101301.50;;;3.41;32.51
76590;BME280;65471;55.908;37.880;2023-04-15T06:47:11;101300.38;;;3.43;31.87
76590;BME280;65471;55.908;37.880;2023-04-15T06:49:40;101308.38;;;3.43;32.57
76590;BME280;65471;55.908;37.880;2023-04-15T06:52:09;101304.00;;;3.42;32.10
76590;BME280;65471;55.908;37.880;2023-04-15T06:54:36;101303.03;;;3.43;30.87
76590;BME280;65471;55.908;37.880;2023-04-15T06:57:03;101292.34;;;3.43;31.31
76590;BME280;65471;55.908;37.880;2023-04-15T06:59:30;101309.19;;;3.54;31.37
76590;BME280;65471;55.908;37.880;2023-04-15T07:01:56;101312.78;;;3.62;31.01
76590;BME280;65471;55.908;37.880;2023-04-15T07:04:23;101311.34;;;3.68;30.74
76590;BME280;65471;55.908;37.880;2023-04-15T07:06:51;101313.44;;;3.74;31.64
76590;BME280;65471;55.908;37.880;2023-04-15T07:09:18;101312.97;;;3.79;31.43
76590;BME280;65471;55.908;37.880;2023-04-15T07:11:45;101308.72;;;3.86;31.89
76590;BME280;65471;55.908;37.880;2023-04-15T07:14:12;101311.25;;;3.88;30.11
76590;BME280;65471;55.908;37.880;2023-04-15T07:16:38;101309.25;;;3.90;30.69
76590;BME280;65471;55.908;37.880;2023-04-15T07:19:05;101313.72;;;3.99;30.50
76590;BME280;65471;55.908;37.880;2023-04-15T07:21:32;101305.25;;;4.04;31.07
76590;BME280;65471;55.908;37.880;2023-04-15T07:23:59;101313.13;;;4.05;30.17
76590;BME280;65471;55.908;37.880;2023-04-15T07:26:26;101315.19;;;4.11;30.52
76590;BME280;65471;55.908;37.880;2023-04-15T07:28:53;101308.53;;;4.15;30.16
76590;BME280;65471;55.908;37.880;2023-04-15T07:31:19;101310.06;;;4.18;29.58
76590;BME280;65471;55.908;37.880;2023-04-15T07:33:46;101309.09;;;4.19;29.72
76590;BME280;65471;55.908;37.880;2023-04-15T07:36:13;101315.94;;;4.22;29.73
76590;BME280;65471;55.908;37.880;2023-04-15T07:38:40;101304.03;;;4.34;29.64
76590;BME280;65471;55.908;37.880;2023-04-15T07:41:08;101301.44;;;4.42;29.76
76590;BME280;65471;55.908;37.880;2023-04-15T07:43:34;101301.72;;;4.57;29.51
76590;BME280;65471;55.908;37.880;2023-04-15T07:46:01;101292.94;;;4.65;28.85
76590;BME280;65471;55.908;37.880;2023-04-15T07:48:28;101305.00;;;4.69;29.34
76590;BME280;65471;55.908;37.880;2023-04-15T07:50:55;101307.44;;;4.80;29.21
76590;BME280;65471;55.908;37.880;2023-04-15T07:53:22;101301.84;;;4.92;29.05
76590;BME280;65471;55.908;37.880;2023-04-15T07:55:48;101295.84;;;4.98;28.72
76590;BME280;65471;55.908;37.880;2023-04-15T07:58:15;101301.94;;;5.08;28.48
76590;BME280;65471;55.908;37.880;2023-04-15T08:00:43;101289.41;;;5.17;28.96
76590;BME280;65471;55.908;37.880;2023-04-15T08:03:10;101295.00;;;5.24;28.96
76590;BME280;65471;55.908;37.880;2023-04-15T08:05:37;101295.16;;;5.22;28.71
76590;BME280;65471;55.908;37.880;2023-04-15T08:08:04;101294.31;;;5.22;28.54
76590;BME280;65471;55.908;37.880;2023-04-15T08:10:30;101292.19;;;5.33;28.60
76590;BME280;65471;55.908;37.880;2023-04-15T08:12:57;101306.31;;;5.44;28.27
76590;BME280;65471;55.908;37.880;2023-04-15T08:15:27;101304.00;;;5.49;27.78
76590;BME280;65471;55.908;37.880;2023-04-15T08:17:53;101302.38;;;5.56;27.85
76590;BME280;65471;55.908;37.880;2023-04-15T08:20:20;101296.84;;;5.58;27.71
76590;BME280;65471;55.908;37.880;2023-04-15T08:22:47;101296.84;;;5.58;26.64
76590;BME280;65471;55.908;37.880;2023-04-15T08:25:17;101299.84;;;5.63;27.26
76590;BME280;65471;55.908;37.880;2023-04-15T08:27:45;101305.97;;;5.81;27.81
76590;BME280;65471;55.908;37.880;2023-04-15T08:30:12;101307.91;;;5.97;27.30
76590;BME280;65471;55.908;37.880;2023-04-15T08:32:41;101299.88;;;5.97;26.29
76590;BME280;65471;55.908;37.880;2023-04-15T08:35:08;101299.56;;;6.09;26.66
76590;BME280;65471;55.908;37.880;2023-04-15T08:37:35;101294.88;;;6.27;26.23
76590;BME280;65471;55.908;37.880;2023-04-15T08:40:03;101298.56;;;6.43;25.89
76590;BME280;65471;55.908;37.880;2023-04-15T08:42:31;101287.19;;;6.57;26.15
76590;BME280;65471;55.908;37.880;2023-04-15T08:45:03;101285.50;;;6.64;25.83
76590;BME280;65471;55.908;37.880;2023-04-15T08:47:32;101283.28;;;6.60;25.27
76590;BME280;65471;55.908;37.880;2023-04-15T08:50:02;101276.41;;;6.73;25.60
76590;BME280;65471;55.908;37.880;2023-04-15T08:52:30;101280.94;;;6.89;25.83
76590;BME280;65471;55.908;37.880;2023-04-15T08:54:59;101281.56;;;7.08;25.37
76590;BME280;65471;55.908;37.880;2023-04-15T08:57:28;101266.72;;;7.29;25.46
76590;BME280;65471;55.908;37.880;2023-04-15T08:59:55;101261.81;;;7.32;24.81
76590;BME280;65471;55.908;37.880;2023-04-15T09:02:23;101272.38;;;7.42;24.88
76590;BME280;65471;55.908;37.880;2023-04-15T09:04:54;101264.44;;;7.57;24.83
76590;BME280;65471;55.908;37.880;2023-04-15T09:07:20;101265.19;;;7.74;25.01
76590;BME280;65471;55.908;37.880;2023-04-15T09:09:47;101268.22;;;7.71;24.06
76590;BME280;65471;55.908;37.880;2023-04-15T09:12:14;101266.84;;;7.75;24.30
76590;BME280;65471;55.908;37.880;2023-04-15T09:14:44;101256.06;;;7.83;23.87
76590;BME280;65471;55.908;37.880;2023-04-15T09:17:11;101265.41;;;7.95;23.43
76590;BME280;65471;55.908;37.880;2023-04-15T09:19:38;101259.91;;;8.12;23.78
76590;BME280;65471;55.908;37.880;2023-04-15T09:22:05;101265.09;;;8.45;23.77
76590;BME280;65471;55.908;37.880;2023-04-15T09:24:39;101257.75;;;8.77;23.72
76590;BME280;65471;55.908;37.880;2023-04-15T09:27:07;101262.22;;;8.85;24.16
76590;BME280;65471;55.908;37.880;2023-04-15T09:29:34;101256.72;;;8.78;23.70
76590;BME280;65471;55.908;37.880;2023-04-15T09:32:15;101259.06;;;8.81;23.53
76590;BME280;65471;55.908;37.880;2023-04-15T09:34:42;101257.38;;;8.80;23.69
76590;BME280;65471;55.908;37.880;2023-04-15T09:37:09;101255.81;;;8.86;23.97
76590;BME280;65471;55.908;37.880;2023-04-15T09:40:03;101256.00;;;8.84;24.75
76590;BME280;65471;55.908;37.880;2023-04-15T09:42:30;101246.88;;;8.85;24.25
76590;BME280;65471;55.908;37.880;2023-04-15T09:45:10;101244.19;;;8.85;24.37
76590;BME280;65471;55.908;37.880;2023-04-15T09:47:37;101249.91;;;8.82;24.53
76590;BME280;65471;55.908;37.880;2023-04-15T09:50:04;101242.38;;;8.77;24.26
76590;BME280;65471;55.908;37.880;2023-04-15T09:52:31;101238.31;;;8.81;24.22
76590;BME280;65471;55.908;37.880;2023-04-15T09:54:59;101241.50;;;8.85;24.15
76590;BME280;65471;55.908;37.880;2023-04-15T09:57:36;101238.13;;;8.83;23.77
76590;BME280;65471;55.908;37.880;2023-04-15T10:00:04;101240.19;;;8.81;23.36
76590;BME280;65471;55.908;37.880;2023-04-15T10:02:32;101241.56;;;8.77;23.00
76590;BME280;65471;55.908;37.880;2023-04-15T10:05:00;101237.16;;;8.61;22.66
76590;BME280;65471;55.908;37.880;2023-04-15T10:07:28;101237.25;;;8.53;22.82
76590;BME280;65471;55.908;37.880;2023-04-15T10:09:55;101237.41;;;8.51;23.35
76590;BME280;65471;55.908;37.880;2023-04-15T10:12:22;101235.13;;;8.63;23.65
76590;BME280;65471;55.908;37.880;2023-04-15T10:14:58;101240.25;;;8.73;23.44
76590;BME280;65471;55.908;37.880;2023-04-15T10:17:26;101236.44;;;8.82;23.81
76590;BME280;65471;55.908;37.880;2023-04-15T10:20:02;101241.69;;;8.98;23.55
76590;BME280;65471;55.908;37.880;2023-04-15T10:22:31;101234.06;;;9.02;23.32
76590;BME280;65471;55.908;37.880;2023-04-15T10:24:58;101231.00;;;9.05;22.67
76590;BME280;65471;55.908;37.880;2023-04-15T10:27:26;101223.91;;;9.04;22.87
76590;BME280;65471;55.908;37.880;2023-04-15T10:29:55;101235.19;;;9.08;23.31
76590;BME280;65471;55.908;37.880;2023-04-15T10:32:23;101224.84;;;9.11;23.14
76590;BME280;65471;55.908;37.880;2023-04-15T10:34:51;101234.44;;;9.14;22.80
76590;BME280;65471;55.908;37.880;2023-04-15T10:37:40;101231.44;;;9.09;23.15
76590;BME280;65471;55.908;37.880;2023-04-15T10:42:50;101234.44;;;9.14;23.39
76590;BME280;65471;55.908;37.880;2023-04-15T10:45:18;101233.47;;;9.22;23.68
76590;BME280;65471;55.908;37.880;2023-04-15T10:47:45;101231.72;;;9.29;23.84
76590;BME280;65471;55.908;37.880;2023-04-15T10:50:12;101232.09;;;9.41;23.80
76590;BME280;65471;55.908;37.880;2023-04-15T10:52:39;101224.91;;;9.33;23.24
76590;BME280;65471;55.908;37.880;2023-04-15T10:57:41;101221.00;;;9.36;23.39
76590;BME280;65471;55.908;37.880;2023-04-15T11:02:43;101220.53;;;9.47;24.45
76590;BME280;65471;55.908;37.880;2023-04-15T11:05:11;101218.56;;;9.56;23.94
76590;BME280;65471;55.908;37.880;2023-04-15T11:07:49;101222.16;;;9.63;23.33
76590;BME280;65471;55.908;37.880;2023-04-15T11:12:44;101219.44;;;9.78;22.75
76590;BME280;65471;55.908;37.880;2023-04-15T11:18:19;101218.69;;;9.84;23.10
76590;BME280;65471;55.908;37.880;2023-04-15T11:23:19;101220.56;;;9.83;23.17
76590;BME280;65471;55.908;37.880;2023-04-15T11:25:46;101216.16;;;9.82;23.45
76590;BME280;65471;55.908;37.880;2023-04-15T11:28:14;101217.69;;;9.92;22.54
76590;BME280;65471;55.908;37.880;2023-04-15T11:30:41;101207.03;;;10.05;23.41
76590;BME280;65471;55.908;37.880;2023-04-15T11:33:09;101207.47;;;10.09;23.14
76590;BME280;65471;55.908;37.880;2023-04-15T11:35:40;101219.19;;;10.16;23.24
76590;BME280;65471;55.908;37.880;2023-04-15T11:38:09;101210.34;;;10.22;23.69
76590;BME280;65471;55.908;37.880;2023-04-15T11:40:38;101207.88;;;10.27;22.46
76590;BME280;65471;55.908;37.880;2023-04-15T11:43:09;101205.44;;;10.32;22.58
76590;BME280;65471;55.908;37.880;2023-04-15T11:45:44;101203.84;;;10.38;22.50
76590;BME280;65471;55.908;37.880;2023-04-15T11:48:13;101192.09;;;10.52;22.72
76590;BME280;65471;55.908;37.880;2023-04-15T11:50:40;101202.78;;;10.61;22.61
76590;BME280;65471;55.908;37.880;2023-04-15T11:53:10;101190.22;;;10.53;22.74
76590;BME280;65471;55.908;37.880;2023-04-15T11:55:48;101194.91;;;10.38;22.61
76590;BME280;65471;55.908;37.880;2023-04-15T12:03:24;101174.50;;;10.13;22.58
76590;BME280;65471;55.908;37.880;2023-04-15T12:06:24;101183.44;;;10.35;22.88
76590;BME280;65471;55.908;37.880;2023-04-15T12:09:09;101178.84;;;10.64;22.54
76590;BME280;65471;55.908;37.880;2023-04-15T12:11:46;101173.94;;;10.75;23.01
76590;BME280;65471;55.908;37.880;2023-04-15T12:16:52;101160.81;;;11.68;21.84
76590;BME280;65471;55.908;37.880;2023-04-15T12:19:25;101152.16;;;12.26;21.64
76590;BME280;65471;55.908;37.880;2023-04-15T12:21:58;101158.56;;;12.72;21.25
76590;BME280;65471;55.908;37.880;2023-04-15T12:24:26;101156.50;;;13.33;21.19
76590;BME280;65471;55.908;37.880;2023-04-15T12:26:55;101158.56;;;13.83;21.03
76590;BME280;65471;55.908;37.880;2023-04-15T12:29:28;101146.72;;;14.03;20.70
76590;BME280;65471;55.908;37.880;2023-04-15T12:32:04;101154.13;;;14.64;20.38
76590;BME280;65471;55.908;37.880;2023-04-15T12:34:34;101161.19;;;15.28;19.88
76590;BME280;65471;55.908;37.880;2023-04-15T12:37:05;101156.66;;;15.03;19.95
76590;BME280;65471;55.908;37.880;2023-04-15T12:39:37;101159.81;;;14.12;20.47
76590;BME280;65471;55.908;37.880;2023-04-15T12:42:05;101158.66;;;13.11;20.91
76590;BME280;65471;55.908;37.880;2023-04-15T12:44:32;101154.44;;;12.43;21.54
76590;BME280;65471;55.908;37.880;2023-04-15T12:46:59;101163.00;;;12.06;22.55
76590;BME280;65471;55.908;37.880;2023-04-15T12:49:27;101153.31;;;11.77;22.85
76590;BME280;65471;55.908;37.880;2023-04-15T12:51:56;101153.06;;;11.52;22.83
76590;BME280;65471;55.908;37.880;2023-04-15T12:54:23;101158.41;;;11.32;22.63
76590;BME280;65471;55.908;37.880;2023-04-15T12:56:50;101155.22;;;11.15;23.02
76590;BME280;65471;55.908;37.880;2023-04-15T12:59:17;101145.75;;;10.97;22.62
76590;BME280;65471;55.908;37.880;2023-04-15T13:01:45;101146.81;;;10.96;22.22
76590;BME280;65471;55.908;37.880;2023-04-15T13:04:13;101139.66;;;10.82;22.64
76590;BME280;65471;55.908;37.880;2023-04-15T13:06:40;101139.22;;;10.78;22.54
76590;BME280;65471;55.908;37.880;2023-04-15T13:09:07;101146.66;;;10.69;23.23
76590;BME280;65471;55.908;37.880;2023-04-15T13:11:34;101155.56;;;10.63;23.56
76590;BME280;65471;55.908;37.880;2023-04-15T13:14:06;101151.97;;;10.56;23.67
76590;BME280;65471;55.908;37.880;2023-04-15T13:16:34;101144.44;;;10.51;23.96